sensor_id;sensor_type;location;lat;lon;timestamp;temperature;humidity
40822;DHT22;26542;50.836;5.356;2022-12-20T00:01:10;13.10;99.90
40822;DHT22;26542;50.836;5.356;2022-12-20T00:03:36;13.10;99.90
40822;DHT22;26542;50.836;5.356;2022-12-20T00:06:02;13.20;99.90
40822;DHT22;26542;50.836;5.356;2022-12-20T00:08:28;13.10;99.90
40822;DHT22;26542;50.836;5.356;2022-12-20T00:10:54;13.20;99.90
40822;DHT22;26542;50.836;5.356;2022-12-20T00:13:20;13.20;99.90
40822;DHT22;26542;50.836;5.356;2022-12-20T00:15:48;13.20;99.90
40822;DHT22;26542;50.836;5.356;2022-12-20T00:18:19;13.10;99.90
40822;DHT22;26542;50.836;5.356;2022-12-20T00:20:47;13.00;99.90
40822;DHT22;26542;50.836;5.356;2022-12-20T00:23:12;13.00;99.90
40822;DHT22;26542;50.836;5.356;2022-12-20T00:25:38;13.00;99.90
40822;DHT22;26542;50.836;5.356;2022-12-20T00:28:06;12.90;99.90
40822;DHT22;26542;50.836;5.356;2022-12-20T00:30:37;12.90;99.90
40822;DHT22;26542;50.836;5.356;2022-12-20T00:33:02;13.00;99.90
40822;DHT22;26542;50.836;5.356;2022-12-20T00:35:30;13.00;99.90
40822;DHT22;26542;50.836;5.356;2022-12-20T00:37:56;13.00;99.90
40822;DHT22;26542;50.836;5.356;2022-12-20T00:40:22;13.10;99.90
40822;DHT22;26542;50.836;5.356;2022-12-20T00:42:48;13.10;99.90
40822;DHT22;26542;50.836;5.356;2022-12-20T00:45:17;13.00;99.90
40822;DHT22;26542;50.836;5.356;2022-12-20T00:47:45;13.00;99.90
40822;DHT22;26542;50.836;5.356;2022-12-20T00:50:13;13.00;99.90
40822;DHT22;26542;50.836;5.356;2022-12-20T00:52:39;13.00;99.90
40822;DHT22;26542;50.836;5.356;2022-12-20T00:55:05;13.00;99.90
40822;DHT22;26542;50.836;5.356;2022-12-20T00:57:30;12.90;99.90
40822;DHT22;26542;50.836;5.356;2022-12-20T00:59:59;12.90;99.90
40822;DHT22;26542;50.836;5.356;2022-12-20T01:02:27;12.90;99.90
40822;DHT22;26542;50.836;5.356;2022-12-20T01:04:55;12.90;99.90
40822;DHT22;26542;50.836;5.356;2022-12-20T01:07:21;12.90;99.90
40822;DHT22;26542;50.836;5.356;2022-12-20T01:09:50;12.90;99.90
40822;DHT22;26542;50.836;5.356;2022-12-20T01:12:16;12.90;99.90
40822;DHT22;26542;50.836;5.356;2022-12-20T01:14:44;12.80;99.90
40822;DHT22;26542;50.836;5.356;2022-12-20T01:17:12;12.90;99.90
40822;DHT22;26542;50.836;5.356;2022-12-20T01:19:40;12.90;99.90
40822;DHT22;26542;50.836;5.356;2022-12-20T01:22:06;12.80;99.90
40822;DHT22;26542;50.836;5.356;2022-12-20T01:24:32;12.80;99.90
40822;DHT22;26542;50.836;5.356;2022-12-20T01:27:00;12.90;99.90
40822;DHT22;26542;50.836;5.356;2022-12-20T01:29:26;12.90;99.90
40822;DHT22;26542;50.836;5.356;2022-12-20T01:31:54;12.90;99.90
40822;DHT22;26542;50.836;5.356;2022-12-20T01:34:19;13.00;99.90
40822;DHT22;26542;50.836;5.356;2022-12-20T01:36:45;12.90;99.90
40822;DHT22;26542;50.836;5.356;2022-12-20T01:39:14;13.00;99.90
40822;DHT22;26542;50.836;5.356;2022-12-20T01:41:42;13.10;99.90
40822;DHT22;26542;50.836;5.356;2022-12-20T01:46:44;13.00;99.90
40822;DHT22;26542;50.836;5.356;2022-12-20T01:49:26;13.00;99.90
40822;DHT22;26542;50.836;5.356;2022-12-20T01:52:06;13.10;99.90
40822;DHT22;26542;50.836;5.356;2022-12-20T01:54:57;13.10;99.90
40822;DHT22;26542;50.836;5.356;2022-12-20T01:57:26;13.10;99.90
40822;DHT22;26542;50.836;5.356;2022-12-20T01:59:59;13.00;99.90
40822;DHT22;26542;50.836;5.356;2022-12-20T02:02:25;13.00;99.90
40822;DHT22;26542;50.836;5.356;2022-12-20T02:04:53;13.00;99.90
40822;DHT22;26542;50.836;5.356;2022-12-20T02:07:24;13.00;99.90
40822;DHT22;26542;50.836;5.356;2022-12-20T02:09:54;12.80;99.90
40822;DHT22;26542;50.836;5.356;2022-12-20T02:12:23;12.70;99.90
40822;DHT22;26542;50.836;5.356;2022-12-20T02:17:56;12.70;99.90
40822;DHT22;26542;50.836;5.356;2022-12-20T02:29:36;12.50;99.90
40822;DHT22;26542;50.836;5.356;2022-12-20T02:32:11;12.60;99.90
40822;DHT22;26542;50.836;5.356;2022-12-20T02:34:40;12.60;99.90
40822;DHT22;26542;50.836;5.356;2022-12-20T02:37:07;12.50;99.90
40822;DHT22;26542;50.836;5.356;2022-12-20T02:39:33;12.50;99.90
40822;DHT22;26542;50.836;5.356;2022-12-20T02:45:07;12.40;99.90
40822;DHT22;26542;50.836;5.356;2022-12-20T02:47:52;12.40;99.90
40822;DHT22;26542;50.836;5.356;2022-12-20T02:50:27;12.40;99.90
40822;DHT22;26542;50.836;5.356;2022-12-20T02:52:58;12.50;99.90
40822;DHT22;26542;50.836;5.356;2022-12-20T02:58:35;12.40;99.90
40822;DHT22;26542;50.836;5.356;2022-12-20T03:01:09;12.40;99.90
40822;DHT22;26542;50.836;5.356;2022-12-20T03:03:36;12.40;99.90
40822;DHT22;26542;50.836;5.356;2022-12-20T03:06:02;12.40;99.90
40822;DHT22;26542;50.836;5.356;2022-12-20T03:08:30;12.40;99.90
40822;DHT22;26542;50.836;5.356;2022-12-20T03:10:56;12.50;99.90
40822;DHT22;26542;50.836;5.356;2022-12-20T03:13:25;12.40;99.90
40822;DHT22;26542;50.836;5.356;2022-12-20T03:15:51;12.40;99.90
40822;DHT22;26542;50.836;5.356;2022-12-20T03:18:16;12.50;99.90
40822;DHT22;26542;50.836;5.356;2022-12-20T03:20:42;12.40;99.90
40822;DHT22;26542;50.836;5.356;2022-12-20T03:23:10;12.40;99.90
40822;DHT22;26542;50.836;5.356;2022-12-20T03:25:39;12.30;99.90
40822;DHT22;26542;50.836;5.356;2022-12-20T03:28:05;12.20;99.90
40822;DHT22;26542;50.836;5.356;2022-12-20T03:30:33;12.30;99.90
40822;DHT22;26542;50.836;5.356;2022-12-20T03:32:59;12.40;99.90
40822;DHT22;26542;50.836;5.356;2022-12-20T03:35:25;12.40;99.90
40822;DHT22;26542;50.836;5.356;2022-12-20T03:37:50;12.30;99.90
40822;DHT22;26542;50.836;5.356;2022-12-20T03:40:20;12.40;99.90
40822;DHT22;26542;50.836;5.356;2022-12-20T03:42:45;12.40;99.90
40822;DHT22;26542;50.836;5.356;2022-12-20T03:45:11;12.40;99.90
40822;DHT22;26542;50.836;5.356;2022-12-20T03:47:37;12.40;99.90
40822;DHT22;26542;50.836;5.356;2022-12-20T03:50:05;12.40;99.90
40822;DHT22;26542;50.836;5.356;2022-12-20T03:52:31;12.50;99.90
40822;DHT22;26542;50.836;5.356;2022-12-20T03:54:59;12.40;99.90
40822;DHT22;26542;50.836;5.356;2022-12-20T03:57:25;12.40;99.90
40822;DHT22;26542;50.836;5.356;2022-12-20T03:59:50;12.40;99.90
40822;DHT22;26542;50.836;5.356;2022-12-20T04:02:21;12.40;99.90
40822;DHT22;26542;50.836;5.356;2022-12-20T04:04:47;12.40;99.90
40822;DHT22;26542;50.836;5.356;2022-12-20T04:07:13;12.40;99.90
40822;DHT22;26542;50.836;5.356;2022-12-20T04:09:39;12.50;99.90
40822;DHT22;26542;50.836;5.356;2022-12-20T04:12:08;12.50;99.90
40822;DHT22;26542;50.836;5.356;2022-12-20T04:14:34;12.40;99.90
40822;DHT22;26542;50.836;5.356;2022-12-20T04:17:02;12.40;99.90
40822;DHT22;26542;50.836;5.356;2022-12-20T04:19:28;12.40;99.90
40822;DHT22;26542;50.836;5.356;2022-12-20T04:21:57;12.50;99.90
40822;DHT22;26542;50.836;5.356;2022-12-20T04:24:25;12.50;99.90
40822;DHT22;26542;50.836;5.356;2022-12-20T04:26:51;12.50;99.90
40822;DHT22;26542;50.836;5.356;2022-12-20T04:29:16;12.60;99.90
40822;DHT22;26542;50.836;5.356;2022-12-20T04:31:42;12.60;99.90
40822;DHT22;26542;50.836;5.356;2022-12-20T04:34:08;12.60;99.90
40822;DHT22;26542;50.836;5.356;2022-12-20T04:36:34;12.60;99.90
40822;DHT22;26542;50.836;5.356;2022-12-20T04:39:00;12.60;99.90
40822;DHT22;26542;50.836;5.356;2022-12-20T04:41:28;12.60;99.90
40822;DHT22;26542;50.836;5.356;2022-12-20T04:43:57;12.80;99.90
40822;DHT22;26542;50.836;5.356;2022-12-20T04:46:24;12.70;99.90
40822;DHT22;26542;50.836;5.356;2022-12-20T04:48:53;12.80;99.90
40822;DHT22;26542;50.836;5.356;2022-12-20T04:51:19;12.80;99.90
40822;DHT22;26542;50.836;5.356;2022-12-20T04:53:48;12.70;99.90
40822;DHT22;26542;50.836;5.356;2022-12-20T04:56:16;12.70;99.90
40822;DHT22;26542;50.836;5.356;2022-12-20T04:58:44;12.70;99.90
40822;DHT22;26542;50.836;5.356;2022-12-20T05:01:15;12.70;99.90
40822;DHT22;26542;50.836;5.356;2022-12-20T05:03:41;12.80;99.90
40822;DHT22;26542;50.836;5.356;2022-12-20T05:06:11;12.70;99.90
40822;DHT22;26542;50.836;5.356;2022-12-20T05:08:38;12.70;99.90
40822;DHT22;26542;50.836;5.356;2022-12-20T05:11:05;12.60;99.90
40822;DHT22;26542;50.836;5.356;2022-12-20T05:13:30;12.70;99.90
40822;DHT22;26542;50.836;5.356;2022-12-20T05:15:57;12.80;99.90
40822;DHT22;26542;50.836;5.356;2022-12-20T05:18:23;12.80;99.90
40822;DHT22;26542;50.836;5.356;2022-12-20T05:20:54;12.70;99.90
40822;DHT22;26542;50.836;5.356;2022-12-20T05:23:40;12.80;99.90
40822;DHT22;26542;50.836;5.356;2022-12-20T05:26:26;12.70;99.90
40822;DHT22;26542;50.836;5.356;2022-12-20T05:28:53;12.70;99.90
40822;DHT22;26542;50.836;5.356;2022-12-20T05:31:19;12.70;99.90
40822;DHT22;26542;50.836;5.356;2022-12-20T05:33:45;12.60;99.90
40822;DHT22;26542;50.836;5.356;2022-12-20T05:36:13;12.60;99.90
40822;DHT22;26542;50.836;5.356;2022-12-20T05:38:39;12.60;99.90
40822;DHT22;26542;50.836;5.356;2022-12-20T05:41:07;12.70;99.90
40822;DHT22;26542;50.836;5.356;2022-12-20T05:43:33;12.80;99.90
40822;DHT22;26542;50.836;5.356;2022-12-20T05:46:00;12.80;99.90
40822;DHT22;26542;50.836;5.356;2022-12-20T05:48:27;12.80;99.90
40822;DHT22;26542;50.836;5.356;2022-12-20T05:50:52;12.80;99.90
40822;DHT22;26542;50.836;5.356;2022-12-20T05:53:20;12.70;99.90
40822;DHT22;26542;50.836;5.356;2022-12-20T05:55:50;12.70;99.90
40822;DHT22;26542;50.836;5.356;2022-12-20T05:58:19;12.70;99.90
40822;DHT22;26542;50.836;5.356;2022-12-20T06:00:48;12.70;99.90
40822;DHT22;26542;50.836;5.356;2022-12-20T06:03:14;12.70;99.90
40822;DHT22;26542;50.836;5.356;2022-12-20T06:08:35;12.80;99.90
40822;DHT22;26542;50.836;5.356;2022-12-20T06:11:01;12.70;99.90
40822;DHT22;26542;50.836;5.356;2022-12-20T06:13:32;12.70;99.90
40822;DHT22;26542;50.836;5.356;2022-12-20T06:15:57;12.70;99.90
40822;DHT22;26542;50.836;5.356;2022-12-20T06:18:26;12.80;99.90
40822;DHT22;26542;50.836;5.356;2022-12-20T06:20:59;12.70;99.90
40822;DHT22;26542;50.836;5.356;2022-12-20T06:23:34;12.70;99.90
40822;DHT22;26542;50.836;5.356;2022-12-20T06:26:07;12.70;99.90
40822;DHT22;26542;50.836;5.356;2022-12-20T06:28:52;12.70;99.90
40822;DHT22;26542;50.836;5.356;2022-12-20T06:31:26;12.70;99.90
40822;DHT22;26542;50.836;5.356;2022-12-20T06:33:55;12.80;99.90
40822;DHT22;26542;50.836;5.356;2022-12-20T06:36:21;12.80;99.90
40822;DHT22;26542;50.836;5.356;2022-12-20T06:38:46;12.80;99.90
40822;DHT22;26542;50.836;5.356;2022-12-20T06:41:15;12.90;99.90
40822;DHT22;26542;50.836;5.356;2022-12-20T06:43:41;12.90;99.90
40822;DHT22;26542;50.836;5.356;2022-12-20T06:46:07;12.90;99.90
40822;DHT22;26542;50.836;5.356;2022-12-20T06:48:33;12.90;99.90
40822;DHT22;26542;50.836;5.356;2022-12-20T06:51:02;12.90;99.90
40822;DHT22;26542;50.836;5.356;2022-12-20T06:53:39;12.90;99.90
40822;DHT22;26542;50.836;5.356;2022-12-20T06:56:05;12.90;99.90
40822;DHT22;26542;50.836;5.356;2022-12-20T06:58:37;12.90;99.90
40822;DHT22;26542;50.836;5.356;2022-12-20T07:01:05;12.90;99.90
40822;DHT22;26542;50.836;5.356;2022-12-20T07:03:32;12.90;99.90
40822;DHT22;26542;50.836;5.356;2022-12-20T07:05:58;13.00;99.90
40822;DHT22;26542;50.836;5.356;2022-12-20T07:08:24;13.00;99.90
40822;DHT22;26542;50.836;5.356;2022-12-20T07:10:52;13.00;99.90
40822;DHT22;26542;50.836;5.356;2022-12-20T07:13:19;13.10;99.90
40822;DHT22;26542;50.836;5.356;2022-12-20T07:15:44;13.10;99.90
40822;DHT22;26542;50.836;5.356;2022-12-20T07:18:10;13.10;99.90
40822;DHT22;26542;50.836;5.356;2022-12-20T07:20:38;13.00;99.90
40822;DHT22;26542;50.836;5.356;2022-12-20T07:23:07;13.00;99.90
40822;DHT22;26542;50.836;5.356;2022-12-20T07:25:34;13.00;99.90
40822;DHT22;26542;50.836;5.356;2022-12-20T07:28:02;13.00;99.90
40822;DHT22;26542;50.836;5.356;2022-12-20T07:30:28;13.00;99.90
40822;DHT22;26542;50.836;5.356;2022-12-20T07:32:53;13.00;99.90
40822;DHT22;26542;50.836;5.356;2022-12-20T07:35:19;13.10;99.90
40822;DHT22;26542;50.836;5.356;2022-12-20T07:37:47;13.00;99.90
40822;DHT22;26542;50.836;5.356;2022-12-20T07:40:13;13.00;99.90
40822;DHT22;26542;50.836;5.356;2022-12-20T07:42:41;13.10;99.90
40822;DHT22;26542;50.836;5.356;2022-12-20T07:45:08;13.10;99.90
40822;DHT22;26542;50.836;5.356;2022-12-20T07:47:37;13.10;99.90
40822;DHT22;26542;50.836;5.356;2022-12-20T07:50:05;13.20;99.90
40822;DHT22;26542;50.836;5.356;2022-12-20T07:52:32;13.20;99.90
40822;DHT22;26542;50.836;5.356;2022-12-20T07:55:01;13.20;99.90
40822;DHT22;26542;50.836;5.356;2022-12-20T07:57:38;13.30;99.90
40822;DHT22;26542;50.836;5.356;2022-12-20T08:00:09;13.20;99.90
40822;DHT22;26542;50.836;5.356;2022-12-20T08:02:45;13.20;99.90
40822;DHT22;26542;50.836;5.356;2022-12-20T08:05:12;13.20;99.90
40822;DHT22;26542;50.836;5.356;2022-12-20T08:07:40;13.30;99.90
40822;DHT22;26542;50.836;5.356;2022-12-20T08:10:09;13.40;99.90
40822;DHT22;26542;50.836;5.356;2022-12-20T08:12:36;13.40;99.90
40822;DHT22;26542;50.836;5.356;2022-12-20T08:15:03;13.30;99.90
40822;DHT22;26542;50.836;5.356;2022-12-20T08:17:29;13.40;99.90
40822;DHT22;26542;50.836;5.356;2022-12-20T08:19:55;13.30;99.90
40822;DHT22;26542;50.836;5.356;2022-12-20T08:22:25;13.30;99.90
40822;DHT22;26542;50.836;5.356;2022-12-20T08:24:50;13.30;99.90
40822;DHT22;26542;50.836;5.356;2022-12-20T08:27:17;13.30;99.90
40822;DHT22;26542;50.836;5.356;2022-12-20T08:29:43;13.30;99.90
40822;DHT22;26542;50.836;5.356;2022-12-20T08:32:09;13.20;99.90
40822;DHT22;26542;50.836;5.356;2022-12-20T08:34:38;13.20;99.90
40822;DHT22;26542;50.836;5.356;2022-12-20T08:37:07;13.20;99.90
40822;DHT22;26542;50.836;5.356;2022-12-20T08:39:35;13.20;99.90
40822;DHT22;26542;50.836;5.356;2022-12-20T08:42:04;13.20;99.90
40822;DHT22;26542;50.836;5.356;2022-12-20T08:44:32;13.10;99.90
40822;DHT22;26542;50.836;5.356;2022-12-20T08:47:00;13.00;99.90
40822;DHT22;26542;50.836;5.356;2022-12-20T08:49:26;13.00;99.90
40822;DHT22;26542;50.836;5.356;2022-12-20T08:51:52;13.00;99.90
40822;DHT22;26542;50.836;5.356;2022-12-20T08:54:18;13.10;99.90
40822;DHT22;26542;50.836;5.356;2022-12-20T08:56:44;13.00;99.90
40822;DHT22;26542;50.836;5.356;2022-12-20T08:59:09;13.00;99.90
40822;DHT22;26542;50.836;5.356;2022-12-20T09:01:35;13.00;99.90
40822;DHT22;26542;50.836;5.356;2022-12-20T09:04:04;13.00;99.90
40822;DHT22;26542;50.836;5.356;2022-12-20T09:06:30;13.00;99.90
40822;DHT22;26542;50.836;5.356;2022-12-20T09:08:56;13.00;99.90
40822;DHT22;26542;50.836;5.356;2022-12-20T09:11:25;13.00;99.90
40822;DHT22;26542;50.836;5.356;2022-12-20T09:13:56;12.90;99.90
40822;DHT22;26542;50.836;5.356;2022-12-20T09:16:24;12.80;99.90
40822;DHT22;26542;50.836;5.356;2022-12-20T09:18:51;12.90;99.90
40822;DHT22;26542;50.836;5.356;2022-12-20T09:21:18;12.90;99.90
40822;DHT22;26542;50.836;5.356;2022-12-20T09:23:44;12.90;99.90
40822;DHT22;26542;50.836;5.356;2022-12-20T09:26:12;12.80;99.90
40822;DHT22;26542;50.836;5.356;2022-12-20T09:28:39;12.80;99.90
40822;DHT22;26542;50.836;5.356;2022-12-20T09:31:07;12.80;99.90
40822;DHT22;26542;50.836;5.356;2022-12-20T09:33:34;12.80;99.90
40822;DHT22;26542;50.836;5.356;2022-12-20T09:36:01;12.80;99.90
40822;DHT22;26542;50.836;5.356;2022-12-20T09:38:28;12.90;99.90
40822;DHT22;26542;50.836;5.356;2022-12-20T09:40:58;12.90;99.90
40822;DHT22;26542;50.836;5.356;2022-12-20T09:43:26;12.90;99.90
40822;DHT22;26542;50.836;5.356;2022-12-20T09:45:54;13.00;99.90
40822;DHT22;26542;50.836;5.356;2022-12-20T09:48:32;12.90;99.90
40822;DHT22;26542;50.836;5.356;2022-12-20T09:59:34;13.00;99.90
40822;DHT22;26542;50.836;5.356;2022-12-20T10:02:00;13.00;99.90
40822;DHT22;26542;50.836;5.356;2022-12-20T10:04:29;13.10;99.90
40822;DHT22;26542;50.836;5.356;2022-12-20T10:07:19;13.10;99.90
40822;DHT22;26542;50.836;5.356;2022-12-20T10:17:41;13.10;99.90
40822;DHT22;26542;50.836;5.356;2022-12-20T10:23:36;13.20;99.90
40822;DHT22;26542;50.836;5.356;2022-12-20T10:26:11;13.20;99.90
40822;DHT22;26542;50.836;5.356;2022-12-20T10:28:37;13.20;99.90
40822;DHT22;26542;50.836;5.356;2022-12-20T10:31:17;13.10;99.90
40822;DHT22;26542;50.836;5.356;2022-12-20T10:33:45;13.20;99.90
40822;DHT22;26542;50.836;5.356;2022-12-20T10:36:32;13.10;99.90
40822;DHT22;26542;50.836;5.356;2022-12-20T10:39:06;13.10;99.90
40822;DHT22;26542;50.836;5.356;2022-12-20T10:41:48;13.00;99.90
40822;DHT22;26542;50.836;5.356;2022-12-20T10:44:24;13.00;99.90
40822;DHT22;26542;50.836;5.356;2022-12-20T10:46:56;13.00;99.90
40822;DHT22;26542;50.836;5.356;2022-12-20T10:49:32;13.00;99.90
40822;DHT22;26542;50.836;5.356;2022-12-20T10:54:39;13.00;99.90
40822;DHT22;26542;50.836;5.356;2022-12-20T10:57:23;13.00;99.90
40822;DHT22;26542;50.836;5.356;2022-12-20T11:02:35;13.00;99.90
40822;DHT22;26542;50.836;5.356;2022-12-20T11:05:02;13.00;99.90
40822;DHT22;26542;50.836;5.356;2022-12-20T11:07:32;13.00;99.90
40822;DHT22;26542;50.836;5.356;2022-12-20T11:10:01;12.90;99.90
40822;DHT22;26542;50.836;5.356;2022-12-20T11:12:30;12.90;99.90
40822;DHT22;26542;50.836;5.356;2022-12-20T11:15:19;12.80;99.90
40822;DHT22;26542;50.836;5.356;2022-12-20T11:17:50;12.70;99.90
40822;DHT22;26542;50.836;5.356;2022-12-20T11:26:04;12.50;99.90
40822;DHT22;26542;50.836;5.356;2022-12-20T11:29:34;12.40;99.90
40822;DHT22;26542;50.836;5.356;2022-12-20T11:32:07;12.40;99.90
40822;DHT22;26542;50.836;5.356;2022-12-20T11:37:27;12.20;99.90
40822;DHT22;26542;50.836;5.356;2022-12-20T11:42:50;12.00;99.90
40822;DHT22;26542;50.836;5.356;2022-12-20T11:46:01;12.00;99.90
40822;DHT22;26542;50.836;5.356;2022-12-20T11:53:56;11.90;99.90
40822;DHT22;26542;50.836;5.356;2022-12-20T11:56:29;12.00;99.90
40822;DHT22;26542;50.836;5.356;2022-12-20T12:01:49;11.90;99.90
40822;DHT22;26542;50.836;5.356;2022-12-20T12:04:25;11.90;99.90
40822;DHT22;26542;50.836;5.356;2022-12-20T12:12:12;11.90;99.90
40822;DHT22;26542;50.836;5.356;2022-12-20T12:15:04;11.90;99.90
40822;DHT22;26542;50.836;5.356;2022-12-20T12:17:41;11.90;99.90
40822;DHT22;26542;50.836;5.356;2022-12-20T12:20:47;12.00;99.90
40822;DHT22;26542;50.836;5.356;2022-12-20T12:23:26;12.00;99.90
40822;DHT22;26542;50.836;5.356;2022-12-20T12:25:57;12.00;99.90
40822;DHT22;26542;50.836;5.356;2022-12-20T12:28:24;12.00;99.90
40822;DHT22;26542;50.836;5.356;2022-12-20T12:31:03;12.10;99.90
40822;DHT22;26542;50.836;5.356;2022-12-20T12:33:37;12.10;99.90
40822;DHT22;26542;50.836;5.356;2022-12-20T12:47:28;12.00;99.90
40822;DHT22;26542;50.836;5.356;2022-12-20T12:49:58;12.10;99.90
40822;DHT22;26542;50.836;5.356;2022-12-20T12:52:47;12.10;99.90
40822;DHT22;26542;50.836;5.356;2022-12-20T13:11:35;12.20;99.90
40822;DHT22;26542;50.836;5.356;2022-12-20T13:16:43;12.10;99.90
40822;DHT22;26542;50.836;5.356;2022-12-20T13:21:59;12.10;99.90
40822;DHT22;26542;50.836;5.356;2022-12-20T13:25:03;12.00;99.90
40822;DHT22;26542;50.836;5.356;2022-12-20T13:27:51;12.00;99.90
40822;DHT22;26542;50.836;5.356;2022-12-20T13:30:22;12.00;99.90
40822;DHT22;26542;50.836;5.356;2022-12-20T13:32:55;11.90;99.90
40822;DHT22;26542;50.836;5.356;2022-12-20T13:38:07;12.00;99.90
40822;DHT22;26542;50.836;5.356;2022-12-20T13:40:51;12.00;99.90
40822;DHT22;26542;50.836;5.356;2022-12-20T13:43:34;11.90;99.90
40822;DHT22;26542;50.836;5.356;2022-12-20T13:46:11;12.00;99.90
40822;DHT22;26542;50.836;5.356;2022-12-20T13:51:23;12.20;99.90
40822;DHT22;26542;50.836;5.356;2022-12-20T13:54:07;12.10;99.90
40822;DHT22;26542;50.836;5.356;2022-12-20T13:56:46;12.10;99.90
40822;DHT22;26542;50.836;5.356;2022-12-20T13:59:25;12.00;99.90
40822;DHT22;26542;50.836;5.356;2022-12-20T14:01:54;12.10;99.90
40822;DHT22;26542;50.836;5.356;2022-12-20T14:04:20;12.10;99.90
40822;DHT22;26542;50.836;5.356;2022-12-20T14:06:57;12.10;99.90
40822;DHT22;26542;50.836;5.356;2022-12-20T14:09:30;12.10;99.90
40822;DHT22;26542;50.836;5.356;2022-12-20T14:12:08;12.00;99.90
40822;DHT22;26542;50.836;5.356;2022-12-20T14:14:37;12.10;99.90
40822;DHT22;26542;50.836;5.356;2022-12-20T14:20:00;12.00;99.90
40822;DHT22;26542;50.836;5.356;2022-12-20T14:22:26;12.10;99.90
40822;DHT22;26542;50.836;5.356;2022-12-20T14:24:54;12.10;99.90
40822;DHT22;26542;50.836;5.356;2022-12-20T14:27:20;12.00;99.90
40822;DHT22;26542;50.836;5.356;2022-12-20T14:29:48;12.00;99.90
40822;DHT22;26542;50.836;5.356;2022-12-20T14:32:20;12.10;99.90
40822;DHT22;26542;50.836;5.356;2022-12-20T14:34:47;12.10;99.90
40822;DHT22;26542;50.836;5.356;2022-12-20T14:40:13;12.10;99.90
40822;DHT22;26542;50.836;5.356;2022-12-20T14:42:41;12.20;99.90
40822;DHT22;26542;50.836;5.356;2022-12-20T14:48:02;12.20;99.90
40822;DHT22;26542;50.836;5.356;2022-12-20T14:50:37;12.20;99.90
40822;DHT22;26542;50.836;5.356;2022-12-20T14:53:17;12.10;99.90
40822;DHT22;26542;50.836;5.356;2022-12-20T14:55:45;12.20;99.90
40822;DHT22;26542;50.836;5.356;2022-12-20T14:58:29;12.10;99.90
40822;DHT22;26542;50.836;5.356;2022-12-20T15:01:00;12.10;99.90
40822;DHT22;26542;50.836;5.356;2022-12-20T15:03:27;12.10;99.90
40822;DHT22;26542;50.836;5.356;2022-12-20T15:08:24;12.20;99.90
40822;DHT22;26542;50.836;5.356;2022-12-20T15:10:57;12.20;99.90
40822;DHT22;26542;50.836;5.356;2022-12-20T15:13:32;12.20;99.90
40822;DHT22;26542;50.836;5.356;2022-12-20T15:16:03;12.20;99.90
40822;DHT22;26542;50.836;5.356;2022-12-20T15:18:31;12.20;99.90
40822;DHT22;26542;50.836;5.356;2022-12-20T15:23:43;12.20;99.90
40822;DHT22;26542;50.836;5.356;2022-12-20T15:26:14;12.10;99.90
40822;DHT22;26542;50.836;5.356;2022-12-20T15:28:40;12.10;99.90
40822;DHT22;26542;50.836;5.356;2022-12-20T15:31:11;12.10;99.90
40822;DHT22;26542;50.836;5.356;2022-12-20T15:33:39;12.10;99.90
40822;DHT22;26542;50.836;5.356;2022-12-20T15:36:08;12.10;99.90
40822;DHT22;26542;50.836;5.356;2022-12-20T15:38:41;12.10;99.90
40822;DHT22;26542;50.836;5.356;2022-12-20T15:41:30;12.00;99.90
40822;DHT22;26542;50.836;5.356;2022-12-20T15:44:00;12.10;99.90
40822;DHT22;26542;50.836;5.356;2022-12-20T15:46:31;12.20;99.90
40822;DHT22;26542;50.836;5.356;2022-12-20T15:48:58;12.20;99.90
40822;DHT22;26542;50.836;5.356;2022-12-20T15:51:33;12.20;99.90
40822;DHT22;26542;50.836;5.356;2022-12-20T15:54:03;12.10;99.90
40822;DHT22;26542;50.836;5.356;2022-12-20T15:56:38;12.10;99.90
40822;DHT22;26542;50.836;5.356;2022-12-20T15:59:06;12.00;99.90
40822;DHT22;26542;50.836;5.356;2022-12-20T16:01:38;12.00;99.90
40822;DHT22;26542;50.836;5.356;2022-12-20T16:04:05;12.00;99.90
40822;DHT22;26542;50.836;5.356;2022-12-20T16:06:32;12.00;99.90
40822;DHT22;26542;50.836;5.356;2022-12-20T16:08:58;12.10;99.90
40822;DHT22;26542;50.836;5.356;2022-12-20T16:11:26;12.00;99.90
40822;DHT22;26542;50.836;5.356;2022-12-20T16:13:56;12.00;99.90
40822;DHT22;26542;50.836;5.356;2022-12-20T16:16:31;12.10;99.90
40822;DHT22;26542;50.836;5.356;2022-12-20T16:19:00;12.00;99.90
40822;DHT22;26542;50.836;5.356;2022-12-20T16:21:33;12.00;99.90
40822;DHT22;26542;50.836;5.356;2022-12-20T16:24:02;12.10;99.90
40822;DHT22;26542;50.836;5.356;2022-12-20T16:26:29;12.00;99.90
40822;DHT22;26542;50.836;5.356;2022-12-20T16:28:58;12.10;99.90
40822;DHT22;26542;50.836;5.356;2022-12-20T16:31:35;12.10;99.90
40822;DHT22;26542;50.836;5.356;2022-12-20T16:34:04;12.10;99.90
40822;DHT22;26542;50.836;5.356;2022-12-20T16:36:31;12.00;99.90
40822;DHT22;26542;50.836;5.356;2022-12-20T16:38:59;12.00;99.90
40822;DHT22;26542;50.836;5.356;2022-12-20T16:41:36;12.00;99.90
40822;DHT22;26542;50.836;5.356;2022-12-20T16:44:14;11.90;99.90
40822;DHT22;26542;50.836;5.356;2022-12-20T16:46:40;11.90;99.90
40822;DHT22;26542;50.836;5.356;2022-12-20T16:49:10;11.90;99.90
40822;DHT22;26542;50.836;5.356;2022-12-20T16:51:44;11.90;99.90
40822;DHT22;26542;50.836;5.356;2022-12-20T16:54:15;12.00;99.90
40822;DHT22;26542;50.836;5.356;2022-12-20T16:56:42;12.00;99.90
40822;DHT22;26542;50.836;5.356;2022-12-20T16:59:09;12.00;99.90
40822;DHT22;26542;50.836;5.356;2022-12-20T17:01:38;11.90;99.90
40822;DHT22;26542;50.836;5.356;2022-12-20T17:04:12;12.00;99.90
40822;DHT22;26542;50.836;5.356;2022-12-20T17:06:42;11.80;99.90
40822;DHT22;26542;50.836;5.356;2022-12-20T17:09:09;11.80;99.90
40822;DHT22;26542;50.836;5.356;2022-12-20T17:11:35;11.90;99.90
40822;DHT22;26542;50.836;5.356;2022-12-20T17:14:04;12.00;99.90
40822;DHT22;26542;50.836;5.356;2022-12-20T17:16:30;12.00;99.90
40822;DHT22;26542;50.836;5.356;2022-12-20T17:18:56;11.90;99.90
40822;DHT22;26542;50.836;5.356;2022-12-20T17:24:00;11.90;99.90
40822;DHT22;26542;50.836;5.356;2022-12-20T17:26:28;11.90;99.90
40822;DHT22;26542;50.836;5.356;2022-12-20T17:28:56;11.90;99.90
40822;DHT22;26542;50.836;5.356;2022-12-20T17:31:41;11.90;99.90
40822;DHT22;26542;50.836;5.356;2022-12-20T17:34:22;12.00;99.90
40822;DHT22;26542;50.836;5.356;2022-12-20T17:36:50;12.00;99.90
40822;DHT22;26542;50.836;5.356;2022-12-20T17:39:18;11.90;99.90
40822;DHT22;26542;50.836;5.356;2022-12-20T17:41:46;12.00;99.90
40822;DHT22;26542;50.836;5.356;2022-12-20T17:44:21;12.00;99.90
40822;DHT22;26542;50.836;5.356;2022-12-20T17:46:48;12.00;99.90
40822;DHT22;26542;50.836;5.356;2022-12-20T17:49:14;12.10;99.90
40822;DHT22;26542;50.836;5.356;2022-12-20T17:51:42;12.00;99.90
40822;DHT22;26542;50.836;5.356;2022-12-20T17:54:16;12.00;99.90
40822;DHT22;26542;50.836;5.356;2022-12-20T17:56:46;12.10;99.90